Time;durP1;ratioP1;P1;durP2;ratioP2;P2;SDS_P1;SDS_P2;PMS_P1;PMS_P2;Temp;Humidity;BMP_temperature;BMP_pressure;BME280_temperature;BME280_humidity;BME280_pressure;Samples;Min_cycle;Max_cycle;Signal;HPM_P1;HPM_P2
2024/01/03 00:01:33;;;;;;;7.45;1.70;;;9.00;94.80;;;;;;5009747;28;20034;-52
2024/01/03 00:04:03;;;;;;;;;;;9.00;94.80;;;;;;4993963;28;20496;-50
2024/01/03 00:06:37;;;;;;;9.88;1.50;;;9.00;94.80;;;;;;4991143;28;19954;-56
2024/01/03 00:09:04;;;;;;;8.20;1.02;;;9.00;94.70;;;;;;4991091;28;20034;-58
2024/01/03 00:11:34;;;;;;;2.80;0.75;;;8.90;94.70;;;;;;5004023;28;20046;-50
2024/01/03 00:14:06;;;;;;;;;;;8.90;94.50;;;;;;5011038;28;20030;-50
2024/01/03 00:16:37;;;;;;;4.20;1.00;;;8.90;94.40;;;;;;5001014;28;19917;-53
2024/01/03 00:19:04;;;;;;;5.88;1.30;;;8.90;94.40;;;;;;4990863;28;20041;-53
2024/01/03 00:21:36;;;;;;;6.80;1.48;;;8.90;94.30;;;;;;4990957;28;20022;-55
2024/01/03 00:24:10;;;;;;;4.03;0.90;;;8.90;94.30;;;;;;5010121;28;20050;-57
2024/01/03 00:26:40;;;;;;;5.03;1.30;;;8.90;94.40;;;;;;5010425;28;20415;-53
2024/01/03 00:29:27;;;;;;;;;;;8.90;94.20;;;;;;5010738;28;20049;-54
2024/01/03 00:31:54;;;;;;;3.45;1.05;;;8.90;94.00;;;;;;4981018;28;19970;-55
2024/01/03 00:34:25;;;;;;;4.90;1.08;;;8.80;93.90;;;;;;4990523;28;20045;-54
2024/01/03 00:36:54;;;;;;;5.78;1.63;;;8.80;93.80;;;;;;4990454;28;20665;-53
2024/01/03 00:39:32;;;;;;;6.35;1.40;;;8.80;94.00;;;;;;5087247;28;20070;-53
2024/01/03 00:41:58;;;;;;;4.53;1.20;;;8.70;94.10;;;;;;5112415;28;20054;-55
2024/01/03 00:44:28;;;;;;;13.40;1.50;;;8.60;94.20;;;;;;5058886;28;20350;-53
2024/01/03 00:46:56;;;;;;;;;;;8.60;94.20;;;;;;5010227;28;20029;-52
2024/01/03 00:49:24;;;;;;;6.90;1.02;;;8.50;94.20;;;;;;5000716;28;20227;-52
2024/01/03 00:51:54;;;;;;;3.83;0.82;;;8.50;94.10;;;;;;4990481;28;20451;-48
2024/01/03 00:54:22;;;;;;;4.07;0.95;;;8.40;93.60;;;;;;4990048;28;20046;-51
2024/01/03 00:56:50;;;;;;;3.25;0.73;;;8.40;93.50;;;;;;4990483;28;20034;-48
2024/01/03 00:59:17;;;;;;;4.30;0.88;;;8.40;93.30;;;;;;4990310;28;20026;-51
2024/01/03 01:01:44;;;;;;;5.75;0.93;;;8.40;93.20;;;;;;4992156;28;20091;-56
2024/01/03 01:04:11;;;;;;;7.75;1.17;;;8.40;93.30;;;;;;5009672;28;20037;-55
2024/01/03 01:06:41;;;;;;;5.03;1.05;;;8.30;93.50;;;;;;4995147;28;20035;-55
2024/01/03 01:09:08;;;;;;;4.30;1.08;;;8.30;93.60;;;;;;4989435;28;20025;-52
2024/01/03 01:11:35;;;;;;;4.28;0.80;;;8.20;93.80;;;;;;4989199;28;20042;-50
2024/01/03 01:14:05;;;;;;;4.10;0.93;;;8.20;93.90;;;;;;4990029;28;20117;-52
2024/01/03 01:16:31;;;;;;;;;;;8.20;93.90;;;;;;4989376;28;20109;-53
2024/01/03 01:18:57;;;;;;;9.55;2.42;;;8.20;94.00;;;;;;4990134;28;20009;-49
2024/01/03 01:21:24;;;;;;;6.40;0.90;;;8.20;94.00;;;;;;4990086;28;20038;-51
2024/01/03 01:23:51;;;;;;;4.15;0.93;;;8.10;94.10;;;;;;4990100;28;20030;-56
2024/01/03 01:26:18;;;;;;;5.10;1.00;;;8.10;94.20;;;;;;4990114;28;20072;-52
2024/01/03 01:28:45;;;;;;;6.68;1.23;;;8.10;94.20;;;;;;4989771;28;20041;-55
2024/01/03 01:31:15;;;;;;;5.82;1.17;;;8.10;94.10;;;;;;4990119;28;20093;-51
2024/01/03 01:33:42;;;;;;;2.75;0.75;;;8.10;94.10;;;;;;4989803;28;20026;-55
2024/01/03 01:36:11;;;;;;;4.47;1.00;;;8.00;94.00;;;;;;4990009;28;20034;-50
2024/01/03 01:38:37;;;;;;;6.33;1.07;;;8.10;93.90;;;;;;5050798;28;20441;-50
2024/01/03 01:41:04;;;;;;;6.80;0.90;;;8.10;93.90;;;;;;5112294;28;20581;-53
2024/01/03 01:43:31;;;;;;;5.15;1.20;;;8.10;93.80;;;;;;5112626;28;20032;-50
2024/01/03 01:45:58;;;;;;;4.40;1.20;;;8.10;93.70;;;;;;5054480;28;20054;-52
2024/01/03 01:48:25;;;;;;;6.30;1.85;;;8.10;93.80;;;;;;5009364;28;20545;-52
2024/01/03 01:50:52;;;;;;;3.70;0.85;;;8.10;93.70;;;;;;4998878;28;20390;-56
2024/01/03 01:53:19;;;;;;;4.07;1.38;;;8.00;93.60;;;;;;4989690;28;20057;-50
2024/01/03 01:55:46;;;;;;;5.35;1.30;;;8.00;93.80;;;;;;4988561;28;20027;-54
2024/01/03 01:58:14;;;;;;;5.78;1.00;;;8.00;93.90;;;;;;4989470;28;20041;-57
2024/01/03 02:00:41;;;;;;;6.60;1.10;;;8.00;93.90;;;;;;4989790;28;20117;-53
2024/01/03 02:03:10;;;;;;;4.22;1.00;;;8.00;93.80;;;;;;4988573;28;20038;-52
2024/01/03 02:05:37;;;;;;;6.05;1.58;;;8.00;93.90;;;;;;4990830;28;20031;-51
2024/01/03 02:08:11;;;;;;;6.72;1.10;;;8.00;94.00;;;;;;4991522;28;20026;-50
2024/01/03 02:10:42;;;;;;;5.10;1.02;;;8.00;94.00;;;;;;4992648;28;20050;-50
2024/01/03 02:13:09;;;;;;;4.72;1.23;;;7.90;94.00;;;;;;4993019;28;20058;-51
2024/01/03 02:15:36;;;;;;;4.15;1.00;;;7.90;93.90;;;;;;4992596;28;20378;-51
2024/01/03 02:18:03;;;;;;;8.18;0.95;;;7.90;93.90;;;;;;4991457;28;20030;-55
2024/01/03 02:20:35;;;;;;;5.88;1.40;;;7.90;93.80;;;;;;4992845;28;20332;-53
2024/01/03 02:23:02;;;;;;;8.13;1.90;;;7.90;93.90;;;;;;5000600;28;20030;-54
2024/01/03 02:25:29;;;;;;;5.78;1.33;;;7.90;94.00;;;;;;5011351;28;20026;-53
2024/01/03 02:27:56;;;;;;;5.88;1.30;;;7.90;94.20;;;;;;4992562;28;20026;-54
2024/01/03 02:30:21;;;;;;;11.65;1.20;;;7.90;94.30;;;;;;4991465;28;20049;-50
2024/01/03 02:32:49;;;;;;;5.90;1.33;;;7.90;94.20;;;;;;4992503;28;20030;-50
2024/01/03 02:35:16;;;;;;;4.63;1.15;;;7.90;94.30;;;;;;4992530;28;20034;-51
2024/01/03 02:37:41;;;;;;;5.93;1.27;;;7.80;94.40;;;;;;5006762;28;20038;-51
2024/01/03 02:40:09;;;;;;;10.50;2.47;;;7.90;94.50;;;;;;5098293;28;20030;-51
2024/01/03 02:42:36;;;;;;;3.60;1.05;;;7.90;94.50;;;;;;4992138;28;20059;-51
2024/01/03 02:45:03;;;;;;;4.80;1.60;;;7.80;94.60;;;;;;4992078;28;20436;-51
2024/01/03 02:47:30;;;;;;;2.85;1.02;;;7.90;94.60;;;;;;5001411;28;20057;-55
2024/01/03 02:49:58;;;;;;;10.48;2.50;;;7.90;94.70;;;;;;5011889;28;20097;-57
2024/01/03 02:52:28;;;;;;;5.88;1.67;;;7.80;94.70;;;;;;5012212;28;20359;-52
2024/01/03 02:54:57;;;;;;;4.95;1.13;;;7.80;94.80;;;;;;5011699;28;20363;-51
2024/01/03 02:57:25;;;;;;;6.97;1.83;;;7.80;94.90;;;;;;5000742;28;20117;-56
2024/01/03 02:59:51;;;;;;;6.05;1.40;;;7.80;94.90;;;;;;4991825;28;20620;-57
2024/01/03 03:02:18;;;;;;;6.28;1.60;;;7.80;94.90;;;;;;5011191;28;20034;-55
2024/01/03 03:04:48;;;;;;;7.00;1.50;;;7.90;95.00;;;;;;5008184;28;20082;-51
2024/01/03 03:07:15;;;;;;;11.07;1.70;;;7.80;95.00;;;;;;4991936;28;20109;-53
2024/01/03 03:09:41;;;;;;;12.88;1.95;;;7.80;95.10;;;;;;4991982;28;20026;-51
2024/01/03 03:12:08;;;;;;;7.53;1.70;;;7.80;95.10;;;;;;4990988;28;20027;-52
2024/01/03 03:14:37;;;;;;;7.60;1.63;;;7.90;95.10;;;;;;4992052;28;20077;-52
2024/01/03 03:17:04;;;;;;;10.30;2.58;;;7.80;95.10;;;;;;4991823;28;20440;-57
2024/01/03 03:19:32;;;;;;;9.60;2.63;;;7.90;95.20;;;;;;4990871;28;20077;-54
2024/01/03 03:21:59;;;;;;;9.13;2.00;;;7.90;95.10;;;;;;4991941;28;20037;-56
2024/01/03 03:24:26;;;;;;;9.63;1.73;;;7.80;95.20;;;;;;4990923;28;20015;-50
2024/01/03 03:26:53;;;;;;;6.90;1.70;;;7.90;95.30;;;;;;4989825;28;20407;-57
2024/01/03 03:29:20;;;;;;;8.30;1.98;;;7.90;95.30;;;;;;4990859;28;20037;-53
2024/01/03 03:31:48;;;;;;;5.55;1.67;;;7.90;95.30;;;;;;4991469;28;20027;-57
2024/01/03 03:34:18;;;;;;;9.45;1.58;;;7.90;95.20;;;;;;4991233;28;20044;-50
2024/01/03 03:36:44;;;;;;;;;;;7.90;95.10;;;;;;4990116;28;20476;-51
2024/01/03 03:39:11;;;;;;;9.10;1.60;;;7.90;95.00;;;;;;5023573;28;19921;-54
2024/01/03 03:41:38;;;;;;;5.45;1.38;;;7.90;95.00;;;;;;4990487;28;20046;-56
2024/01/03 03:44:07;;;;;;;9.07;2.40;;;7.90;94.90;;;;;;4990957;28;20023;-55
2024/01/03 03:46:34;;;;;;;7.40;2.08;;;7.90;94.90;;;;;;5002370;28;20030;-54
2024/01/03 03:49:00;;;;;;;5.40;1.50;;;7.90;94.90;;;;;;5010918;28;20061;-52
2024/01/03 03:51:26;;;;;;;7.45;1.77;;;7.90;94.90;;;;;;5010940;28;20462;-51
2024/01/03 03:53:54;;;;;;;6.97;1.48;;;8.00;94.90;;;;;;5003227;28;20029;-56
2024/01/03 03:56:30;;;;;;;6.07;1.20;;;8.00;94.90;;;;;;4990281;28;20037;-52
2024/01/03 03:58:56;;;;;;;5.82;1.10;;;8.00;94.80;;;;;;4990039;28;20416;-53
2024/01/03 04:01:26;;;;;;;7.85;2.05;;;8.00;94.70;;;;;;4990007;28;20068;-51
2024/01/03 04:03:52;;;;;;;12.98;2.58;;;8.10;94.70;;;;;;4991204;28;20054;-52
2024/01/03 04:06:19;;;;;;;8.63;1.70;;;8.00;94.60;;;;;;4990946;28;20022;-53
2024/01/03 04:08:48;;;;;;;7.38;2.45;;;8.10;94.50;;;;;;4990968;28;20455;-54
2024/01/03 04:11:15;;;;;;;8.18;1.67;;;8.10;94.50;;;;;;4991137;28;20026;-55
2024/01/03 04:13:42;;;;;;;12.50;1.63;;;8.10;94.50;;;;;;4991038;28;20029;-52
2024/01/03 04:16:09;;;;;;;10.73;1.42;;;8.10;94.50;;;;;;4990807;28;20030;-54
2024/01/03 04:18:36;;;;;;;9.20;2.65;;;8.00;94.50;;;;;;4990812;28;20044;-54
2024/01/03 04:21:06;;;;;;;6.60;1.95;;;8.00;94.40;;;;;;5005848;28;20026;-52
2024/01/03 04:23:36;;;;;;;7.70;1.80;;;8.10;94.40;;;;;;5010465;28;20398;-55
2024/01/03 04:26:03;;;;;;;8.15;1.80;;;8.00;94.30;;;;;;5009222;28;20036;-56
2024/01/03 04:28:29;;;;;;;7.50;2.00;;;8.00;94.20;;;;;;5009682;28;20033;-55
2024/01/03 04:30:54;;;;;;;11.63;1.88;;;8.00;94.30;;;;;;4990708;28;20418;-57
2024/01/03 04:33:21;;;;;;;6.82;1.63;;;8.00;94.20;;;;;;4990816;28;20030;-54
2024/01/03 04:35:47;;;;;;;7.88;1.83;;;8.00;94.20;;;;;;4989062;28;20399;-57
2024/01/03 04:38:13;;;;;;;9.50;1.65;;;8.00;94.30;;;;;;5030157;28;20121;-54
2024/01/03 04:40:39;;;;;;;7.85;1.70;;;8.00;94.40;;;;;;5017278;28;20410;-56
2024/01/03 04:43:06;;;;;;;11.00;1.75;;;8.00;94.60;;;;;;4990527;28;20121;-56
2024/01/03 04:45:33;;;;;;;9.70;1.80;;;8.00;94.70;;;;;;5003159;28;20164;-58
2024/01/03 04:48:02;;;;;;;13.98;3.65;;;8.00;94.90;;;;;;5009388;28;20072;-58
2024/01/03 04:50:28;;;;;;;11.23;3.47;;;7.90;95.10;;;;;;5005936;28;20037;-54
2024/01/03 04:52:55;;;;;;;8.63;3.65;;;7.90;95.20;;;;;;4989703;28;20038;-57
2024/01/03 04:55:21;;;;;;;15.13;3.38;;;7.90;95.30;;;;;;4989823;28;20026;-55
2024/01/03 04:57:46;;;;;;;12.25;2.35;;;7.90;95.30;;;;;;4990087;28;20634;-50
2024/01/03 05:00:18;;;;;;;13.60;2.38;;;7.90;95.30;;;;;;4990337;28;20041;-55
2024/01/03 05:02:43;;;;;;;13.10;3.90;;;7.90;95.30;;;;;;4990157;28;20036;-55
2024/01/03 05:05:10;;;;;;;9.68;3.78;;;7.90;95.20;;;;;;4990420;28;20022;-55
2024/01/03 05:07:37;;;;;;;17.85;3.65;;;8.00;95.00;;;;;;4989234;28;20041;-51
2024/01/03 05:10:08;;;;;;;15.15;5.82;;;8.00;94.90;;;;;;4990211;28;20037;-53
2024/01/03 05:12:38;;;;;;;14.52;3.03;;;8.00;94.90;;;;;;4990563;28;20502;-56
2024/01/03 05:15:09;;;;;;;10.63;3.13;;;8.00;95.00;;;;;;4990162;28;20029;-53
2024/01/03 05:17:36;;;;;;;13.15;3.30;;;8.00;95.00;;;;;;4989798;28;20031;-55
2024/01/03 05:20:06;;;;;;;10.40;2.95;;;8.00;94.90;;;;;;4990025;28;20377;-52
2024/01/03 05:22:35;;;;;;;19.17;3.95;;;8.00;94.90;;;;;;4990132;28;20030;-51
2024/01/03 05:25:02;;;;;;;10.95;2.15;;;8.00;94.80;;;;;;4989776;28;20035;-53
2024/01/03 05:27:29;;;;;;;9.98;2.70;;;8.00;94.60;;;;;;4988961;28;20515;-51
2024/01/03 05:29:56;;;;;;;12.77;2.88;;;8.10;94.50;;;;;;4989946;28;20153;-48
2024/01/03 05:32:25;;;;;;;8.90;2.35;;;8.00;94.30;;;;;;4989931;28;20062;-51
2024/01/03 05:34:54;;;;;;;14.13;2.70;;;8.10;94.10;;;;;;4989955;28;20036;-49
2024/01/03 05:37:20;;;;;;;8.93;1.95;;;8.10;94.00;;;;;;4989826;28;20038;-50
2024/01/03 05:39:47;;;;;;;14.27;4.25;;;8.10;94.00;;;;;;5027374;28;20369;-51
2024/01/03 05:42:14;;;;;;;13.00;2.38;;;8.10;94.20;;;;;;4992730;28;20513;-48
2024/01/03 05:44:43;;;;;;;10.70;3.22;;;8.10;94.40;;;;;;4993380;28;20045;-52
2024/01/03 05:47:13;;;;;;;8.73;2.13;;;8.00;94.50;;;;;;4993328;28;20027;-50
2024/01/03 05:49:39;;;;;;;;;;;8.00;94.60;;;;;;4997341;28;20277;-49
2024/01/03 05:52:07;;;;;;;6.63;1.90;;;8.00;94.70;;;;;;5012696;28;20011;-47
2024/01/03 05:54:33;;;;;;;8.55;2.15;;;8.00;94.80;;;;;;5012591;28;20416;-49
2024/01/03 05:57:02;;;;;;;10.95;4.32;;;8.00;94.90;;;;;;5012543;28;20030;-47
2024/01/03 05:59:32;;;;;;;11.77;2.93;;;8.00;94.90;;;;;;5000200;28;20092;-48
2024/01/03 06:01:59;;;;;;;10.10;2.22;;;8.00;94.90;;;;;;4992331;28;20760;-49
2024/01/03 06:04:25;;;;;;;6.13;1.50;;;8.00;94.90;;;;;;4992050;28;20171;-53
2024/01/03 06:06:50;;;;;;;8.30;3.05;;;8.10;94.90;;;;;;4992207;28;20091;-51
2024/01/03 06:09:16;;;;;;;10.45;1.77;;;8.10;94.70;;;;;;4991615;28;20058;-47
2024/01/03 06:11:43;;;;;;;6.57;2.17;;;8.20;94.70;;;;;;4991898;28;20030;-46
2024/01/03 06:14:10;;;;;;;13.23;2.60;;;8.20;94.50;;;;;;4992673;28;20496;-48
2024/01/03 06:16:37;;;;;;;8.07;2.15;;;8.20;94.60;;;;;;4992774;28;20026;-47
2024/01/03 06:19:06;;;;;;;13.80;2.97;;;8.20;94.60;;;;;;4991504;28;20125;-48
2024/01/03 06:21:33;;;;;;;6.78;2.25;;;8.20;94.50;;;;;;4992505;28;20042;-48
2024/01/03 06:24:04;;;;;;;12.98;2.45;;;8.20;94.50;;;;;;4992595;28;20097;-48
2024/01/03 06:26:30;;;;;;;5.90;1.30;;;8.20;94.50;;;;;;4992762;28;20034;-48
2024/01/03 06:28:57;;;;;;;3.90;2.17;;;8.20;94.30;;;;;;4992464;28;20030;-48
2024/01/03 06:31:23;;;;;;;6.18;1.30;;;8.20;94.10;;;;;;4992400;28;20110;-47
2024/01/03 06:33:51;;;;;;;6.75;1.95;;;8.20;94.00;;;;;;4992580;28;20719;-44
2024/01/03 06:36:19;;;;;;;6.25;1.77;;;8.30;93.80;;;;;;4992445;28;20015;-45
2024/01/03 06:38:44;;;;;;;6.20;1.63;;;8.30;93.40;;;;;;5059590;28;20098;-44
2024/01/03 06:41:11;;;;;;;6.18;1.60;;;8.40;93.30;;;;;;5093066;28;20129;-44
2024/01/03 06:43:38;;;;;;;8.73;2.97;;;8.40;93.00;;;;;;5011749;28;20038;-46
2024/01/03 06:46:05;;;;;;;6.97;1.92;;;8.40;93.00;;;;;;5010690;28;20030;-45
2024/01/03 06:48:32;;;;;;;7.80;1.65;;;8.40;92.80;;;;;;4993920;28;20038;-44
2024/01/03 06:51:02;;;;;;;9.85;3.13;;;8.40;92.80;;;;;;4991788;28;20022;-47
2024/01/03 06:53:30;;;;;;;12.27;2.95;;;8.40;92.90;;;;;;4994034;28;20165;-44
2024/01/03 06:55:56;;;;;;;12.55;1.95;;;8.40;92.90;;;;;;5011727;28;20123;-45
2024/01/03 06:58:23;;;;;;;6.82;2.45;;;8.40;92.70;;;;;;5011619;28;20092;-45
2024/01/03 07:00:50;;;;;;;5.47;1.88;;;8.40;92.60;;;;;;4998213;28;20035;-45
2024/01/03 07:03:18;;;;;;;9.40;2.22;;;8.40;92.50;;;;;;4991872;28;20039;-46
2024/01/03 07:05:45;;;;;;;8.82;2.17;;;8.40;92.40;;;;;;4991903;28;20022;-48
2024/01/03 07:08:12;;;;;;;12.05;2.85;;;8.40;92.40;;;;;;4991975;28;20030;-45
2024/01/03 07:10:39;;;;;;;10.98;1.95;;;8.40;92.30;;;;;;4991633;28;20023;-49
2024/01/03 07:13:06;;;;;;;11.68;2.38;;;8.40;92.00;;;;;;4991719;28;20447;-44
2024/01/03 07:15:31;;;;;;;8.85;2.08;;;8.40;92.00;;;;;;4991631;28;20038;-44
2024/01/03 07:18:01;;;;;;;8.93;2.25;;;8.40;91.90;;;;;;4991603;28;20030;-49
2024/01/03 07:20:28;;;;;;;8.43;2.20;;;8.40;91.70;;;;;;4991756;28;20022;-49
2024/01/03 07:22:55;;;;;;;12.30;3.55;;;8.40;91.70;;;;;;4991307;28;20035;-44
2024/01/03 07:25:21;;;;;;;12.52;2.42;;;8.40;91.70;;;;;;4991656;28;20030;-45
2024/01/03 07:27:50;;;;;;;9.52;2.00;;;8.40;91.70;;;;;;4991384;28;20026;-45
2024/01/03 07:30:16;;;;;;;7.82;2.05;;;8.40;91.70;;;;;;4990510;28;20023;-47
2024/01/03 07:32:44;;;;;;;7.40;2.33;;;8.40;91.60;;;;;;4974345;28;20030;-45
2024/01/03 07:35:12;;;;;;;8.98;2.72;;;8.40;91.60;;;;;;4991376;28;20042;-46
2024/01/03 07:37:37;;;;;;;8.10;2.88;;;8.40;91.60;;;;;;5001661;28;20033;-45
2024/01/03 07:40:04;;;;;;;10.00;2.67;;;8.50;91.60;;;;;;5112686;28;20027;-44
2024/01/03 07:42:31;;;;;;;8.93;2.95;;;8.40;91.40;;;;;;5113813;28;20039;-48
2024/01/03 07:44:57;;;;;;;11.27;2.63;;;8.50;91.10;;;;;;5114294;28;20019;-45
2024/01/03 07:47:24;;;;;;;7.53;2.03;;;8.50;91.10;;;;;;5022898;28;20058;-47
2024/01/03 07:49:51;;;;;;;5.78;1.60;;;8.40;91.30;;;;;;5010875;28;20465;-45
2024/01/03 07:52:20;;;;;;;7.55;1.50;;;8.40;91.30;;;;;;5010903;28;20033;-45
2024/01/03 07:54:47;;;;;;;8.73;2.10;;;8.30;91.50;;;;;;4998213;28;20109;-46
2024/01/03 07:57:13;;;;;;;5.95;1.90;;;8.30;91.70;;;;;;4990267;28;20266;-44
2024/01/03 07:59:44;;;;;;;6.00;1.60;;;8.30;91.80;;;;;;4991075;28;20055;-45
2024/01/03 08:02:12;;;;;;;3.97;1.17;;;8.30;91.80;;;;;;4991063;28;20038;-46
2024/01/03 08:04:40;;;;;;;11.98;2.00;;;8.30;91.80;;;;;;4990246;28;20049;-46
2024/01/03 08:07:09;;;;;;;5.35;1.73;;;8.40;91.80;;;;;;4997548;28;20613;-46
2024/01/03 08:09:42;;;;;;;8.80;1.30;;;8.40;91.90;;;;;;5010515;28;20030;-46
2024/01/03 08:12:09;;;;;;;9.30;1.80;;;8.40;91.90;;;;;;5009318;28;20393;-44
2024/01/03 08:14:36;;;;;;;3.85;1.73;;;8.40;92.00;;;;;;5010509;28;20026;-46
2024/01/03 08:17:03;;;;;;;3.70;1.63;;;8.40;92.00;;;;;;4999737;28;20026;-45
2024/01/03 08:19:33;;;;;;;8.35;2.05;;;8.40;92.00;;;;;;4991017;28;20046;-46
2024/01/03 08:22:01;;;;;;;7.32;1.52;;;8.40;92.10;;;;;;4990364;28;20061;-46
2024/01/03 08:24:27;;;;;;;7.03;1.80;;;8.40;92.10;;;;;;4990491;28;20056;-46
2024/01/03 08:26:55;;;;;;;7.72;2.22;;;8.40;92.20;;;;;;4990134;28;20022;-45
2024/01/03 08:29:22;;;;;;;6.32;1.60;;;8.40;92.30;;;;;;4990169;28;20034;-51
2024/01/03 08:31:49;;;;;;;5.32;1.15;;;8.40;92.40;;;;;;4990517;28;20164;-45
2024/01/03 08:34:16;;;;;;;2.75;1.15;;;8.40;92.60;;;;;;4990617;28;20037;-46
2024/01/03 08:36:44;;;;;;;4.90;0.90;;;8.40;92.70;;;;;;4989568;28;20030;-46
2024/01/03 08:39:11;;;;;;;2.60;0.90;;;8.40;92.90;;;;;;5079076;28;20020;-46
2024/01/03 08:41:38;;;;;;;2.88;1.05;;;8.40;92.90;;;;;;5112817;28;20475;-46
2024/01/03 08:44:05;;;;;;;3.15;1.15;;;8.50;92.80;;;;;;5097210;28;20034;-49
2024/01/03 08:46:38;;;;;;;2.90;0.88;;;8.40;92.90;;;;;;5010214;28;20056;-46
2024/01/03 08:49:05;;;;;;;3.00;0.90;;;8.40;92.90;;;;;;5009652;28;20030;-45
2024/01/03 08:51:31;;;;;;;6.10;1.20;;;8.40;92.80;;;;;;4998055;28;20023;-46
2024/01/03 08:54:01;;;;;;;4.88;1.10;;;8.50;92.70;;;;;;4989310;28;20034;-47
2024/01/03 08:56:26;;;;;;;6.03;0.90;;;8.50;92.60;;;;;;4990514;28;20022;-46
2024/01/03 08:58:55;;;;;;;5.07;1.13;;;8.50;92.60;;;;;;4990442;28;20362;-46
2024/01/03 09:01:23;;;;;;;3.25;1.10;;;8.50;92.50;;;;;;5002573;28;20071;-47
2024/01/03 09:03:50;;;;;;;10.40;2.35;;;8.50;92.70;;;;;;5009631;28;20106;-48
2024/01/03 09:06:25;;;;;;;5.65;1.15;;;8.50;92.80;;;;;;5009750;28;20050;-46
2024/01/03 09:08:54;;;;;;;5.88;1.33;;;8.50;93.10;;;;;;5009817;28;20455;-46
2024/01/03 09:11:25;;;;;;;3.43;0.97;;;8.50;93.30;;;;;;4990174;28;20060;-47
2024/01/03 09:13:53;;;;;;;3.33;1.10;;;8.40;93.60;;;;;;4990439;28;20026;-46
2024/01/03 09:16:27;;;;;;;6.70;1.17;;;8.40;93.80;;;;;;4992844;28;20076;-46
2024/01/03 09:18:57;;;;;;;8.27;2.60;;;8.40;94.10;;;;;;4997449;28;20038;-48
2024/01/03 09:21:26;;;;;;;;;;;8.40;94.10;;;;;;4994002;28;20034;-45
2024/01/03 09:23:53;;;;;;;4.93;1.88;;;8.40;94.00;;;;;;4993432;28;19971;-44
2024/01/03 09:26:23;;;;;;;3.80;1.80;;;8.40;93.80;;;;;;5002484;28;20335;-46
2024/01/03 09:28:52;;;;;;;4.07;1.50;;;8.40;93.60;;;;;;5013152;28;20451;-46
2024/01/03 09:31:22;;;;;;;5.90;1.75;;;8.50;93.50;;;;;;4998068;28;20048;-46
2024/01/03 09:33:50;;;;;;;5.90;2.05;;;8.40;93.30;;;;;;4993272;28;20047;-45
2024/01/03 09:36:20;;;;;;;6.43;1.80;;;8.50;93.40;;;;;;4992162;28;20031;-44
2024/01/03 09:38:47;;;;;;;3.95;1.27;;;8.40;93.50;;;;;;5061325;28;20088;-44
2024/01/03 09:41:14;;;;;;;6.28;2.17;;;8.40;93.60;;;;;;5072740;28;20054;-44
2024/01/03 09:43:45;;;;;;;3.65;0.95;;;8.30;93.80;;;;;;4993198;28;20122;-43
2024/01/03 09:46:13;;;;;;;4.70;1.00;;;8.30;93.80;;;;;;4993125;28;20044;-45
2024/01/03 09:48:46;;;;;;;6.45;1.63;;;8.30;93.80;;;;;;4993129;28;20030;-44
2024/01/03 09:51:12;;;;;;;10.25;1.50;;;8.30;93.90;;;;;;5003763;28;20026;-44
2024/01/03 09:53:40;;;;;;;3.80;1.38;;;8.30;93.90;;;;;;5012629;28;20030;-45
2024/01/03 09:56:07;;;;;;;4.00;1.50;;;8.30;93.90;;;;;;5012632;28;20119;-47
2024/01/03 09:58:37;;;;;;;7.97;1.85;;;8.30;93.90;;;;;;5004799;28;20034;-43
2024/01/03 10:01:04;;;;;;;4.30;1.45;;;8.40;93.90;;;;;;4993049;28;20103;-45
2024/01/03 10:03:31;;;;;;;4.72;1.52;;;8.40;93.70;;;;;;4992858;28;20497;-44
2024/01/03 10:06:10;;;;;;;10.27;1.67;;;8.40;93.60;;;;;;4992975;28;20034;-43
2024/01/03 10:08:36;;;;;;;9.57;2.40;;;8.40;93.40;;;;;;4992969;28;20031;-45
2024/01/03 10:11:18;;;;;;;8.13;1.83;;;8.50;93.40;;;;;;4992634;28;20371;-45
2024/01/03 10:13:49;;;;;;;7.03;2.75;;;8.50;93.40;;;;;;4991925;28;20038;-45
2024/01/03 10:16:28;;;;;;;10.65;3.45;;;8.50;93.30;;;;;;4992860;28;20151;-44
2024/01/03 10:19:14;;;;;;;11.75;3.13;;;8.60;93.20;;;;;;4992794;28;20466;-45
2024/01/03 10:21:52;;;;;;;15.07;3.58;;;8.60;93.10;;;;;;4992559;28;20652;-45
2024/01/03 10:24:24;;;;;;;11.93;3.78;;;8.60;93.10;;;;;;4992670;28;20027;-44
2024/01/03 10:26:58;;;;;;;14.35;4.30;;;8.60;93.00;;;;;;4991704;28;20032;-44
2024/01/03 10:29:25;;;;;;;14.85;3.72;;;8.60;92.90;;;;;;4992721;28;20309;-43
2024/01/03 10:31:52;;;;;;;9.95;3.33;;;8.60;92.90;;;;;;4991253;28;20591;-46
2024/01/03 10:34:23;;;;;;;8.60;2.25;;;8.60;92.90;;;;;;4992766;28;20034;-50
2024/01/03 10:36:52;;;;;;;18.40;3.70;;;8.60;93.20;;;;;;5002507;28;20041;-58
2024/01/03 10:39:22;;;;;;;11.55;2.42;;;8.50;93.40;;;;;;5092188;28;20027;-53
2024/01/03 10:41:50;;;;;;;12.20;2.97;;;8.50;93.60;;;;;;5089325;28;20050;-54
2024/01/03 10:44:20;;;;;;;11.45;3.00;;;8.40;94.00;;;;;;4992512;28;20374;-57
2024/01/03 10:46:48;;;;;;;8.32;2.42;;;8.40;94.30;;;;;;4992550;28;20018;-52
2024/01/03 10:49:16;;;;;;;7.85;2.60;;;8.40;94.50;;;;;;4992078;28;20317;-56
2024/01/03 10:51:44;;;;;;;14.18;3.15;;;8.30;94.80;;;;;;4991994;28;20113;-51
2024/01/03 10:54:15;;;;;;;9.73;2.80;;;8.40;95.00;;;;;;4991855;28;20038;-49
2024/01/03 10:56:51;;;;;;;20.98;3.03;;;8.30;95.10;;;;;;4992042;28;20062;-51
2024/01/03 10:59:28;;;;;;;7.10;1.88;;;8.30;95.20;;;;;;4991880;28;20030;-51
2024/01/03 11:02:26;;;;;;;12.45;2.95;;;8.20;95.30;;;;;;4991895;28;20076;-54
2024/01/03 11:05:09;;;;;;;12.10;2.83;;;8.20;95.40;;;;;;4992204;28;20027;-55
2024/01/03 11:07:44;;;;;;;12.88;2.58;;;8.30;95.40;;;;;;4992037;28;20420;-54
2024/01/03 11:10:47;;;;;;;16.70;4.10;;;8.30;95.40;;;;;;4990657;28;20424;-52
2024/01/03 11:13:32;;;;;;;10.23;3.28;;;8.20;95.40;;;;;;4991715;28;20464;-52
2024/01/03 11:16:01;;;;;;;13.95;2.65;;;8.20;95.40;;;;;;4992003;28;20036;-50
2024/01/03 11:18:45;;;;;;;13.98;2.35;;;8.20;95.50;;;;;;4992004;28;20065;-49
2024/01/03 11:21:30;;;;;;;9.85;2.05;;;8.20;95.50;;;;;;4991675;28;20495;-49
2024/01/03 11:24:02;;;;;;;8.30;2.40;;;8.30;95.60;;;;;;4991678;28;20515;-47
2024/01/03 11:27:08;;;;;;;8.60;1.90;;;8.30;95.60;;;;;;4990560;28;20061;-47
2024/01/03 11:29:43;;;;;;;9.32;2.20;;;8.40;95.50;;;;;;4991558;28;20452;-47
2024/01/03 11:32:29;;;;;;;7.90;2.42;;;8.40;95.40;;;;;;4991685;28;20029;-45
2024/01/03 11:34:56;;;;;;;5.15;3.15;;;8.40;95.30;;;;;;4991647;28;20079;-45
2024/01/03 11:37:25;;;;;;;9.02;1.80;;;8.40;95.10;;;;;;4991303;28;20042;-47
2024/01/03 11:39:53;;;;;;;7.13;2.00;;;8.40;95.00;;;;;;5011113;28;20030;-45
2024/01/03 11:42:30;;;;;;;7.18;1.90;;;8.40;94.80;;;;;;5010689;28;20049;-45
2024/01/03 11:45:17;;;;;;;5.68;1.95;;;8.40;94.60;;;;;;5006251;28;20015;-44
2024/01/03 11:47:46;;;;;;;5.95;2.13;;;8.40;94.60;;;;;;4991381;28;20477;-47
2024/01/03 11:50:15;;;;;;;7.03;2.00;;;8.50;94.50;;;;;;4991345;28;20080;-46
2024/01/03 11:52:47;;;;;;;6.70;2.20;;;8.50;94.40;;;;;;4991481;28;20359;-45
2024/01/03 11:55:16;;;;;;;7.28;1.60;;;8.50;94.30;;;;;;5003136;28;20296;-51
2024/01/03 11:57:49;;;;;;;9.60;1.65;;;8.50;94.20;;;;;;5010183;28;20079;-45
2024/01/03 12:00:24;;;;;;;9.48;1.98;;;8.50;94.20;;;;;;4996338;28;20061;-47
2024/01/03 12:03:08;;;;;;;8.20;1.50;;;8.40;94.10;;;;;;4991124;28;20026;-45
2024/01/03 12:05:44;;;;;;;8.95;1.90;;;8.40;94.00;;;;;;4991102;28;20079;-45
2024/01/03 12:08:13;;;;;;;7.30;1.73;;;8.40;94.00;;;;;;4990197;28;20027;-47
2024/01/03 12:10:40;;;;;;;6.70;2.47;;;8.30;94.00;;;;;;4991009;28;20037;-45
2024/01/03 12:13:07;;;;;;;6.95;1.45;;;8.40;93.90;;;;;;5001445;28;20049;-43
2024/01/03 12:15:35;;;;;;;5.72;2.25;;;8.40;93.80;;;;;;5009586;28;20113;-46
2024/01/03 12:18:08;;;;;;;6.47;1.20;;;8.40;93.80;;;;;;5010748;28;20022;-46
2024/01/03 12:20:38;;;;;;;4.70;1.20;;;8.40;93.80;;;;;;5003189;28;20577;-46
2024/01/03 12:23:15;;;;;;;6.63;1.30;;;8.40;93.70;;;;;;4990953;28;20030;-46
2024/01/03 12:25:41;;;;;;;8.35;3.13;;;8.40;93.80;;;;;;4989785;28;20516;-44
2024/01/03 12:28:07;;;;;;;6.50;1.35;;;8.40;93.90;;;;;;4989764;28;20026;-47
2024/01/03 12:30:34;;;;;;;6.03;1.70;;;8.40;94.00;;;;;;4990780;28;20459;-46
2024/01/03 12:33:15;;;;;;;5.95;1.80;;;8.40;94.00;;;;;;4990646;28;20081;-47
2024/01/03 12:35:47;;;;;;;4.53;1.67;;;8.40;94.00;;;;;;4990945;28;20037;-48
2024/01/03 12:38:13;;;;;;;8.85;1.73;;;8.40;94.00;;;;;;5030785;28;20025;-47
2024/01/03 12:40:39;;;;;;;6.60;1.60;;;8.40;94.00;;;;;;5057057;28;20026;-48
2024/01/03 12:43:06;;;;;;;5.13;1.33;;;8.40;93.90;;;;;;4990218;28;20026;-46
2024/01/03 12:45:33;;;;;;;7.68;1.88;;;8.40;94.00;;;;;;4990720;28;20026;-51
2024/01/03 12:48:03;;;;;;;5.43;1.52;;;8.40;94.00;;;;;;4990622;28;20026;-50
2024/01/03 12:50:33;;;;;;;4.78;1.58;;;8.40;94.00;;;;;;4990209;28;20428;-46
2024/01/03 12:53:04;;;;;;;8.68;1.60;;;8.40;93.90;;;;;;4990371;28;20046;-48
2024/01/03 12:55:33;;;;;;;6.72;1.30;;;8.40;93.90;;;;;;4990457;28;20447;-47
2024/01/03 12:57:59;;;;;;;7.50;2.50;;;8.40;93.70;;;;;;4989689;28;20066;-48
2024/01/03 13:00:27;;;;;;;6.80;1.48;;;8.40;93.70;;;;;;4990528;28;20118;-46
2024/01/03 13:02:53;;;;;;;7.32;1.63;;;8.40;93.60;;;;;;4990245;28;20044;-46
2024/01/03 13:05:20;;;;;;;7.05;1.38;;;8.40;93.40;;;;;;4990421;28;20140;-46
2024/01/03 13:07:46;;;;;;;14.13;2.10;;;8.40;93.30;;;;;;4990577;28;20613;-48